메인 페이지
METAR-TAF:

METAR-TAF

공항 :

Windsor Locks, 코네티컷, 미국

위도: 41-56-17N, 경도: 072-40-57W, 고도: 53m

현재 날씨관측

예보는 50분 전, 23:51시(UTC)에 발표되었습니다.
북서4kt
온도 6°C
습도 39%
기압 1010 hPa
시정: 16.1km
고도 6000ft 상공 구름 많음

METAR: KBDL 032351Z 31004KT 10SM BKN060 06/M07 A2982 RMK AO2 SLP099 T00611067 10094 20056 53014

시각: 19:41 (00:41 UTC)

예보

예보는 1 시간 17분 전, 23:24시(UTC)에 발표되었습니다.
예보 대상 시간: 04일 00시부터 05일 06시까지 (UTC)
5kt
시정: 10km
고도 5000ft 상공 구름 많음
04일 1300시부터 (UTC)
북서8kt
시정: 10km
고도 25000ft 상공 구름 보통
04일 1500시부터 (UTC)
북서14kt, 순간 최대 풍속 22kt
시정: 10km
고도 25000ft 상공 구름 조금
04일 2100시부터 (UTC)
북서18kt, 순간 최대 풍속 30kt
시정: 10km
맑음
05일 0000시부터 (UTC)
북서14kt, 순간 최대 풍속 23kt
시정: 10km
맑음

TAF: KBDL 032324Z 0400/0506 28005KT P6SM BKN050 FM041300 31008KT P6SM SCT250 FM041500 32014G22KT P6SM FEW250 FM042100 31018G30KT P6SM SKC FM050000 31014G23KT P6SM SKC

4,000개 이상의 공항 관측 자료 및 예보 (METAR 및 TAF 보고).

지도상에서 검색 가능한 기상관측소가 노란 점과 빨간 점으로 표시되어 있습니다.

기상관측소 명을 보려면 표시 위로 마우스를 이동하세요.

날씨 관측과 예보를 보려면 클릭하세요.

지도 변경 : 확대하려면 엑스 표시가 있는 녹색 버튼, 축소하려면 빼기 표시가 있는 녹색 버튼, 다음 페이지의 지도를 보려면 녹색 화살표를 클릭하세요.


METAR-TAF: